This is the latest recevied weather packets stored in our database for station/object YN3ZBQ-13. If no packets are shown the sender has not sent any weather packets the latest 10 day(s).
| Time | Temp. | Humidity | Pressure | Rain* | Wind** | Luminosity | Snow |
|---|---|---|---|---|---|---|---|
| 1777740131 | 31.67° C | 43% | 1011 hPa | 0 mm | - | - | - |
| 1777739531 | 32.22° C | 43% | 1011 hPa | 0 mm | - | - | - |
| 1777738930 | 32.78° C | 43% | 1011 hPa | 0 mm | - | - | - |
| 1777738330 | 30.56° C | 61% | 1011 hPa | 0 mm | - | - | - |
| 1777737730 | 30.56° C | 62% | 1011 hPa | 0 mm | - | - | - |
| 1777737129 | 30.56° C | 62% | 1011 hPa | 0 mm | - | - | - |
| 1777736529 | 30.56° C | 62% | 1011 hPa | 0 mm | - | - | - |
| 1777735928 | 28.89° C | 73% | 1011 hPa | 0 mm | - | - | - |
| 1777735328 | 29.44° C | 73% | 1011 hPa | 0 mm | - | - | - |
| 1777734728 | 28.89° C | 76% | 1011 hPa | 0 mm | - | - | - |
| 1777734128 | 27.78° C | 78% | 1011 hPa | 0 mm | - | - | - |
| 1777733527 | 27.78° C | 78% | 1011 hPa | 0 mm | - | - | - |
| 1777732927 | 27.78° C | 78% | 1011 hPa | 0 mm | - | - | - |
| 1777732326 | 27.22° C | 86% | 1011 hPa | 0 mm | - | - | - |
| 1777731726 | 27.78° C | 86% | 1011 hPa | 0 mm | - | - | - |
| 1777731126 | 25.56° C | 89% | 1011 hPa | 0 mm | - | - | - |
| 1777730525 | 25.56° C | 89% | 1011 hPa | 0 mm | - | - | - |
| 1777729925 | 25.56° C | 89% | 1011 hPa | 0 mm | - | - | - |
| 1777729325 | 25.56° C | 89% | 1011 hPa | 0 mm | - | - | - |
| 1777728725 | 25.56° C | 89% | 1010 hPa | 0 mm | - | - | - |
| 1777728124 | 25.56° C | 87% | 1010 hPa | 0 mm | - | - | - |
| 1777727524 | 26.11° C | 87% | 1010 hPa | 0 mm | - | - | - |
| 1777726924 | 24.44° C | 88% | 1010 hPa | 0 mm | - | - | - |
| 1777726324 | 24.44° C | 88% | 1010 hPa | 0 mm | - | - | - |
| 1777725723 | 24.44° C | 88% | 1010 hPa | 0 mm | - | - | - |
* Rain latest hour (hover to see other rain measurements)
** Current wind speed in m/s (hover to see current wind gust speed)